7M0 weather

Mc Crory/Morton Airport
Mc Crory, Arkansas, United States

Public forecast

Using degrees Fahrenheit for public forecast. Weather courtesy of forecast.io.

METAR (pilot weather report)

Closest report is Newport Regional Airport, 24.9 nm (46.2 km) N. Retrieved UTC (0 seconds ago):

TAF (pilot weather forecast)

Forecast is more than 12 hours old.

Closest forecast is Jonesboro Municipal Airport, 42.3 nm (78.4 km) NNE. Retrieved 2019/07/17 00:22 UTC (1 day ago):

TAF KJBR 172320Z 1800/1824 21012KT P6SM VCSH SCT035 BKN250 FM180300 21006KT P6SM FEW030 BKN250 FM181400 24009KT P6SM SCT035 SCT250 FM181700 23011G17KT P6SM BKN040 BKN250